Map

Track Data

SID SEASON NUMBER BASIN SUBBASIN NAME ISO_TIME NATURE LAT LON WMO_WIND WMO_PRES WMO_AGENCY TRACK_TYPE DIST2LAND LANDFALL IFLAG USA_AGENCY USA_ATCF_ID USA_LAT USA_LON USA_RECORD USA_STATUS USA_WIND USA_PRES USA_SSHS USA_R34_NE USA_R34_SE USA_R34_SW USA_R34_NW USA_R50_NE USA_R50_SE USA_R50_SW USA_R50_NW USA_R64_NE USA_R64_SE USA_R64_SW USA_R64_NW USA_POCI USA_ROCI USA_RMW USA_EYE TOKYO_LAT TOKYO_LON TOKYO_GRADE TOKYO_WIND TOKYO_PRES TOKYO_R50_DIR TOKYO_R50_LONG TOKYO_R50_SHORT TOKYO_R30_DIR TOKYO_R30_LONG TOKYO_R30_SHORT TOKYO_LAND CMA_LAT CMA_LON CMA_CAT CMA_WIND CMA_PRES HKO_LAT HKO_LON HKO_CAT HKO_WIND HKO_PRES NEWDELHI_LAT NEWDELHI_LON NEWDELHI_GRADE NEWDELHI_WIND NEWDELHI_PRES NEWDELHI_CI NEWDELHI_DP NEWDELHI_POCI REUNION_LAT REUNION_LON REUNION_TYPE REUNION_WIND REUNION_PRES REUNION_TNUM REUNION_CI REUNION_RMW REUNION_R34_NE REUNION_R34_SE REUNION_R34_SW REUNION_R34_NW REUNION_R50_NE REUNION_R50_SE REUNION_R50_SW REUNION_R50_NW REUNION_R64_NE REUNION_R64_SE REUNION_R64_SW REUNION_R64_NW BOM_LAT BOM_LON BOM_TYPE BOM_WIND BOM_PRES BOM_TNUM BOM_CI BOM_RMW BOM_R34_NE BOM_R34_SE BOM_R34_SW BOM_R34_NW BOM_R50_NE BOM_R50_SE BOM_R50_SW BOM_R50_NW BOM_R64_NE BOM_R64_SE BOM_R64_SW BOM_R64_NW BOM_ROCI BOM_POCI BOM_EYE BOM_POS_METHOD BOM_PRES_METHOD NADI_LAT NADI_LON NADI_CAT NADI_WIND NADI_PRES WELLINGTON_LAT WELLINGTON_LON WELLINGTON_WIND WELLINGTON_PRES DS824_LAT DS824_LON DS824_STAGE DS824_WIND DS824_PRES TD9636_LAT TD9636_LON TD9636_STAGE TD9636_WIND TD9636_PRES TD9635_LAT TD9635_LON TD9635_WIND TD9635_PRES TD9635_ROCI NEUMANN_LAT NEUMANN_LON NEUMANN_CLASS NEUMANN_WIND NEUMANN_PRES MLC_LAT MLC_LON MLC_CLASS MLC_WIND MLC_PRES USA_GUST BOM_GUST BOM_GUST_PER REUNION_GUST REUNION_GUST_PER USA_SEAHGT USA_SEARAD_NE USA_SEARAD_SE USA_SEARAD_SW USA_SEARAD_NW STORM_SPEED STORM_DIR
1909277N16127 1909 55 WP MM NOT_NAMED 1909-10-04 04:00:00 NR 15.8000 126.500 main 310 286 __________O___ -1 15.8000 126.500 7 11 280
1909277N16127 1909 55 WP MM NOT_NAMED 1909-10-04 06:00:00 NR 15.8652 126.135 main 287 260 __________P___ -1 15.8652 126.135 7 11 280
1909277N16127 1909 55 WP MM NOT_NAMED 1909-10-04 09:00:00 NR 15.9566 125.599 main 263 239 __________P___ -1 15.9566 125.599 7 10 280
1909277N16127 1909 55 WP MM NOT_NAMED 1909-10-04 12:00:00 NR 16.0334 125.093 main 239 236 __________P___ -1 16.0334 125.093 7 9 278
1909277N16127 1909 55 WP MM NOT_NAMED 1909-10-04 15:00:00 NR 16.0881 124.638 main 237 231 __________P___ -1 16.0881 124.638 7 9 277
1909277N16127 1909 55 WP MM NOT_NAMED 1909-10-04 16:00:00 NR 16.1000 124.500 main 231 202 __________O___ -1 16.1000 124.500 3 8 274
1909277N16127 1909 55 WP MM NOT_NAMED 1909-10-04 18:00:00 NR 16.1139 124.248 main 202 174 __________P___ -1 16.1139 124.248 3 7 272
1909277N16127 1909 55 WP MM NOT_NAMED 1909-10-04 21:00:00 NR 16.1161 123.908 main 174 147 __________P___ -1 16.1161 123.908 3 6 269
1909277N16127 1909 55 WP MM NOT_NAMED 1909-10-05 00:00:00 NR 16.1073 123.581 main 147 107 __________P___ -1 16.1073 123.581 3 7 269
1909277N16127 1909 55 WP MM NOT_NAMED 1909-10-05 03:00:00 NR 16.1000 123.229 main 107 96 __________P___ -1 16.1000 123.229 3 7 269
1909277N16127 1909 55 WP MM NOT_NAMED 1909-10-05 04:00:00 NR 16.1000 123.100 main 96 65 __________O___ -1 16.1000 123.100 4 8 272
1909277N16127 1909 55 WP MM NOT_NAMED 1909-10-05 06:00:00 NR 16.1110 122.801 main 65 15 __________P___ -1 16.1110 122.801 4 9 273
1909277N16127 1909 55 WP MM NOT_NAMED 1909-10-05 09:00:00 NR 16.1338 122.314 main 15 0 __________P___ -1 16.1338 122.314 4 10 273
1909277N16127 1909 55 WP MM NOT_NAMED 1909-10-05 12:00:00 NR 16.1613 121.799 main 0 0 __________P___ -1 16.1613 121.799 4 10 273
1909277N16127 1909 55 WP MM NOT_NAMED 1909-10-05 15:00:00 NR 16.1904 121.274 main 0 0 __________P___ -1 16.1904 121.274 4 10 273
1909277N16127 1909 55 WP MM NOT_NAMED 1909-10-05 16:00:00 NR 16.2000 121.100 main 0 0 __________O___ -1 16.2000 121.100 4 10 273
1909277N16127 1909 55 WP MM NOT_NAMED 1909-10-05 18:00:00 NR 16.2165 120.764 main 0 0 __________P___ -1 16.2165 120.764 4 10 273
1909277N16127 1909 55 WP MM NOT_NAMED 1909-10-05 21:00:00 NR 16.2413 120.260 main 10 0 __________P___ -1 16.2413 120.260 4 10 273
1909277N16127 1909 55 WP MM NOT_NAMED 1909-10-06 00:00:00 NR 16.2663 119.759 main 0 10 __________P___ -1 16.2663 119.759 4 10 273
1909277N16127 1909 55 WP MM NOT_NAMED 1909-10-06 03:00:00 NR 16.2916 119.263 main 53 63 __________P___ -1 16.2916 119.263 4 10 273
1909277N16127 1909 55 WP MM NOT_NAMED 1909-10-06 04:00:00 NR 16.3000 119.100 main 72 72 __________O___ -1 16.3000 119.100 4 9 273
1909277N16127 1909 55 WP MM NOT_NAMED 1909-10-06 06:00:00 NR 16.3191 118.772 main 101 111 __________P___ -1 16.3191 118.772 4 9 274
1909277N16127 1909 55 WP MM NOT_NAMED 1909-10-06 09:00:00 NR 16.3479 118.287 main 153 153 __________P___ -1 16.3479 118.287 4 9 273
1909277N16127 1909 55 WP MM NOT_NAMED 1909-10-06 12:00:00 NR 16.3743 117.812 main 207 207 __________P___ -1 16.3743 117.812 4 9 273
1909277N16127 1909 55 WP MM NOT_NAMED 1909-10-06 15:00:00 NR 16.3949 117.350 main 249 260 __________P___ -1 16.3949 117.350 4 9 273
1909277N16127 1909 55 WP MM NOT_NAMED 1909-10-06 16:00:00 NR 16.4000 117.200 main 270 270 __________O___ -1 16.4000 117.200 4 8 271
1909277N16127 1909 55 WP MM NOT_NAMED 1909-10-06 18:00:00 NR 16.4027 116.910 main 302 302 __________P___ -1 16.4027 116.910 4 8 270
1909277N16127 1909 55 WP MM NOT_NAMED 1909-10-06 21:00:00 NR 16.4007 116.489 main 344 344 __________P___ -1 16.4007 116.489 4 8 270
1909277N16127 1909 55 WP MM NOT_NAMED 1909-10-07 00:00:00 NR 16.3969 116.071 main 387 397 __________P___ -1 16.3969 116.071 4 8 270
1909277N16127 1909 55 WP MM NOT_NAMED 1909-10-07 03:00:00 NR 16.3977 115.646 main 440 440 __________P___ -1 16.3977 115.646 4 8 270
1909277N16127 1909 55 WP MM NOT_NAMED 1909-10-07 04:00:00 NR 16.4000 115.500 main 450 450 __________O___ -1 16.4000 115.500 4 9 272
1909277N16127 1909 55 WP MM NOT_NAMED 1909-10-07 06:00:00 NR 16.4136 115.187 main 482 482 __________P___ -1 16.4136 115.187 4 9 273
1909277N16127 1909 55 WP MM NOT_NAMED 1909-10-07 09:00:00 NR 16.4404 114.705 main 519 469 __________P___ -1 16.4404 114.705 4 9 273
1909277N16127 1909 55 WP MM NOT_NAMED 1909-10-07 12:00:00 NR 16.4692 114.221 main 469 434 __________P___ -1 16.4692 114.221 4 9 273
1909277N16127 1909 55 WP MM NOT_NAMED 1909-10-07 15:00:00 NR 16.4938 113.751 main 434 417 __________P___ -1 16.4938 113.751 4 9 273
1909277N16127 1909 55 WP MM NOT_NAMED 1909-10-07 16:00:00 NR 16.5000 113.600 main 417 392 __________O___ -1 16.5000 113.600 4 8 272
1909277N16127 1909 55 WP MM NOT_NAMED 1909-10-07 18:00:00 NR 16.5079 113.324 main 392 361 __________P___ -1 16.5079 113.324 4 8 271
1909277N16127 1909 55 WP MM NOT_NAMED 1909-10-07 21:00:00 NR 16.5138 112.929 main 361 331 __________P___ -1 16.5138 112.929 4 8 270
1909277N16127 1909 55 WP MM NOT_NAMED 1909-10-08 00:00:00 NR 16.5126 112.541 main 331 305 __________P___ -1 16.5126 112.541 4 8 269
1909277N16127 1909 55 WP MM NOT_NAMED 1909-10-08 03:00:00 NR 16.5043 112.140 main 305 298 __________P___ -1 16.5043 112.140 4 8 269
1909277N16127 1909 55 WP MM NOT_NAMED 1909-10-08 04:00:00 NR 16.5000 112.000 main 298 278 __________O___ -1 16.5000 112.000 4 8 268
1909277N16127 1909 55 WP MM NOT_NAMED 1909-10-08 06:00:00 NR 16.4916 111.698 main 278 247 __________P___ -1 16.4916 111.698 4 9 268
1909277N16127 1909 55 WP MM NOT_NAMED 1909-10-08 09:00:00 NR 16.4729 111.226 main 247 223 __________P___ -1 16.4729 111.226 4 9 267
1909277N16127 1909 55 WP MM NOT_NAMED 1909-10-08 12:00:00 NR 16.4466 110.742 main 227 201 __________P___ -1 16.4466 110.742 4 9 266
1909277N16127 1909 55 WP MM NOT_NAMED 1909-10-08 15:00:00 NR 16.4129 110.259 main 201 185 __________P___ -1 16.4129 110.259 4 9 266
1909277N16127 1909 55 WP MM NOT_NAMED 1909-10-08 16:00:00 NR 16.4000 110.100 main 185 162 __________O___ -1 16.4000 110.100 4 9 265
1909277N16127 1909 55 WP MM NOT_NAMED 1909-10-08 18:00:00 NR 16.3719 109.788 main 162 111 __________P___ -1 16.3719 109.788 4 9 264
1909277N16127 1909 55 WP MM NOT_NAMED 1909-10-08 21:00:00 NR 16.3248 109.332 main 111 72 __________P___ -1 16.3248 109.332 4 9 263
1909277N16127 1909 55 WP MM NOT_NAMED 1909-10-09 00:00:00 NR 16.2732 108.886 main 72 24 __________P___ -1 16.2732 108.886 4 9 263
1909277N16127 1909 55 WP MM NOT_NAMED 1909-10-09 03:00:00 NR 16.2186 108.446 main 24 21 __________P___ -1 16.2186 108.446 4 9 263
1909277N16127 1909 55 WP MM NOT_NAMED 1909-10-09 04:00:00 NR 16.2000 108.300 main 21 __________O___ -1 16.2000 108.300 7 8 263

Digital Typhoon Data and Search

About IBTrACS Database

This database is a web-friendly format of International Best Track Archive for Climate Stewardship (IBTrACS), a global best track data archive curated by NOAA dating back to 1842.

Updated: 2021-10-21